createdAt,value
2018-03-21T00:00:42.140Z,97625.08
2018-03-21T00:03:16.529Z,97624.18
2018-03-21T00:05:52.633Z,97620.50
2018-03-21T00:08:27.630Z,97623.27
2018-03-21T00:10:59.204Z,97629.50
2018-03-21T00:13:31.249Z,97625.27
2018-03-21T00:16:05.715Z,97632.64
2018-03-21T00:18:36.163Z,97633.50
2018-03-21T00:21:06.930Z,97635.48
2018-03-21T00:23:36.671Z,97640.02
2018-03-21T00:26:09.490Z,97637.67
2018-03-21T00:28:39.856Z,97639.04
2018-03-21T00:31:10.355Z,97638.00
2018-03-21T00:33:44.834Z,97631.99
2018-03-21T00:36:22.662Z,97633.13
2018-03-21T00:38:57.475Z,97620.89
2018-03-21T00:41:30.946Z,97620.58
2018-03-21T00:44:04.513Z,97618.09
2018-03-21T00:46:35.461Z,97608.09
2018-03-21T00:49:14.672Z,97609.21
2018-03-21T00:51:49.367Z,97600.70
2018-03-21T00:54:21.091Z,97601.20
2018-03-21T00:56:58.134Z,97599.81
2018-03-21T00:59:29.794Z,97598.59
2018-03-21T01:02:06.916Z,97594.81
2018-03-21T01:04:37.982Z,97592.20
2018-03-21T01:07:11.863Z,97589.48
2018-03-21T01:09:41.775Z,97587.78
2018-03-21T01:12:16.655Z,97588.55
2018-03-21T01:14:46.919Z,97586.00
2018-03-21T01:17:20.782Z,97594.66
2018-03-21T01:19:52.370Z,97590.05
2018-03-21T01:22:24.418Z,97587.55
2018-03-21T01:24:55.705Z,97592.00
2018-03-21T01:27:28.273Z,97591.92
2018-03-21T01:30:01.028Z,97598.13
2018-03-21T01:32:33.227Z,97592.41
2018-03-21T01:35:03.683Z,97609.14
2018-03-21T01:37:36.368Z,97600.06
2018-03-21T01:40:10.932Z,97604.99
2018-03-21T01:42:43.334Z,97599.31
2018-03-21T01:45:14.479Z,97599.65
2018-03-21T01:47:47.161Z,97601.13
2018-03-21T01:50:20.001Z,97593.16
2018-03-21T01:53:13.297Z,97587.39
2018-03-21T01:55:43.652Z,97592.24
2018-03-21T01:58:16.974Z,97589.78
2018-03-21T02:00:46.822Z,97595.95
2018-03-21T02:03:20.888Z,97598.89
2018-03-21T02:05:52.347Z,97602.54
2018-03-21T02:08:25.078Z,97600.34
2018-03-21T02:10:57.213Z,97598.90
2018-03-21T02:13:33.710Z,97610.47
2018-03-21T02:16:09.638Z,97606.69
2018-03-21T02:18:43.428Z,97600.30
2018-03-21T02:21:19.257Z,97607.30
2018-03-21T02:23:52.511Z,97601.98
2018-03-21T02:26:25.530Z,97606.27
2018-03-21T02:28:59.458Z,97597.95
2018-03-21T02:31:32.581Z,97610.64
2018-03-21T02:34:10.602Z,97608.16
2018-03-21T02:36:43.377Z,97619.83
2018-03-21T02:39:15.311Z,97612.41
2018-03-21T02:41:49.470Z,97609.22
2018-03-21T02:44:20.611Z,97612.98
2018-03-21T02:46:52.802Z,97620.50
2018-03-21T02:49:26.837Z,97620.79
2018-03-21T02:51:59.004Z,97618.33
2018-03-21T02:54:30.305Z,97624.05
2018-03-21T02:57:02.703Z,97628.22
2018-03-21T02:59:32.893Z,97644.36
2018-03-21T03:02:07.755Z,97630.21
2018-03-21T03:04:38.823Z,97640.52
2018-03-21T03:07:14.033Z,97648.02
2018-03-21T03:09:48.243Z,97646.64
2018-03-21T03:12:18.780Z,97651.42
2018-03-21T03:14:53.866Z,97654.92
2018-03-21T03:17:27.335Z,97660.94
2018-03-21T03:20:00.350Z,97671.92
2018-03-21T03:22:29.972Z,97679.48
2018-03-21T03:25:00.533Z,97674.29
2018-03-21T03:27:31.562Z,97677.48
2018-03-21T03:30:09.840Z,97679.27
2018-03-21T03:32:42.917Z,97677.98
2018-03-21T03:35:15.169Z,97679.35
2018-03-21T03:37:47.640Z,97686.26
2018-03-21T03:40:17.794Z,97684.05
2018-03-21T03:42:51.295Z,97684.84
2018-03-21T03:45:21.901Z,97688.11
2018-03-21T03:47:56.028Z,97686.98
2018-03-21T03:50:26.537Z,97691.41
2018-03-21T03:53:00.867Z,97687.28
2018-03-21T03:55:36.409Z,97694.63
2018-03-21T03:58:08.094Z,97700.27
2018-03-21T04:00:37.996Z,97702.20
2018-03-21T04:03:11.515Z,97708.04
2018-03-21T04:05:48.089Z,97710.66
2018-03-21T04:08:19.410Z,97712.66
2018-03-21T04:10:54.530Z,97719.41
2018-03-21T04:13:26.196Z,97720.32
2018-03-21T04:15:57.447Z,97727.31
2018-03-21T04:18:28.790Z,97731.77
2018-03-21T04:21:14.566Z,97722.47
2018-03-21T04:23:45.787Z,97724.31
2018-03-21T04:26:20.776Z,97731.20
2018-03-21T04:28:52.081Z,97729.59
2018-03-21T04:31:27.485Z,97735.45
2018-03-21T04:33:58.528Z,97743.13
2018-03-21T04:36:31.017Z,97746.81
2018-03-21T04:39:01.633Z,97755.35
2018-03-21T04:41:32.567Z,97763.79
2018-03-21T04:44:03.900Z,97763.86
2018-03-21T04:46:38.576Z,97763.38
2018-03-21T04:49:10.171Z,97766.55
2018-03-21T04:51:43.595Z,97772.38
2018-03-21T04:54:18.133Z,97782.56
2018-03-21T04:56:51.897Z,97790.47
2018-03-21T04:59:26.741Z,97785.88
2018-03-21T05:02:00.820Z,97799.44
2018-03-21T05:04:34.975Z,97799.70
2018-03-21T05:07:05.816Z,97806.00
2018-03-21T05:09:38.124Z,97814.97
2018-03-21T05:12:10.799Z,97818.94
2018-03-21T05:14:46.522Z,97821.84
2018-03-21T05:17:24.884Z,97827.95
2018-03-21T05:19:55.854Z,97833.25
2018-03-21T05:22:27.751Z,97831.31
2018-03-21T05:24:59.962Z,97839.72
2018-03-21T05:27:33.961Z,97851.96
2018-03-21T05:30:03.840Z,97851.69
2018-03-21T05:32:35.305Z,97849.23
2018-03-21T05:35:06.461Z,97861.80
2018-03-21T05:37:38.994Z,97868.61
2018-03-21T05:40:14.915Z,97862.89
2018-03-21T05:42:51.730Z,97872.02
2018-03-21T05:45:24.015Z,97874.16
2018-03-21T05:47:56.437Z,97863.41
2018-03-21T05:50:32.666Z,97867.63
2018-03-21T05:53:04.629Z,97879.58
2018-03-21T05:55:39.758Z,97880.64
2018-03-21T05:58:19.079Z,97883.06
2018-03-21T06:00:51.352Z,97886.61
2018-03-21T06:03:23.853Z,97899.41
2018-03-21T06:05:58.055Z,97900.07
2018-03-21T06:08:30.302Z,97896.53
2018-03-21T06:11:01.535Z,97899.70
2018-03-21T06:13:33.563Z,97905.47
2018-03-21T06:16:06.872Z,97909.53
2018-03-21T06:18:41.375Z,97911.48
2018-03-21T06:21:13.747Z,97921.70
2018-03-21T06:23:48.270Z,97924.70
2018-03-21T06:26:26.193Z,97922.16
2018-03-21T06:28:58.344Z,97924.68
2018-03-21T06:31:29.250Z,97920.66
2018-03-21T06:34:00.073Z,97923.41
2018-03-21T06:36:32.722Z,97929.91
2018-03-21T06:39:08.329Z,97935.05
2018-03-21T06:41:37.993Z,97936.02
2018-03-21T06:44:11.609Z,97934.55
2018-03-21T06:46:46.710Z,97938.62
2018-03-21T06:49:21.627Z,97935.77
2018-03-21T06:51:51.980Z,97946.81
2018-03-21T06:54:24.402Z,97947.65
2018-03-21T06:56:58.971Z,97947.25
2018-03-21T06:59:32.560Z,97954.24
2018-03-21T07:02:06.469Z,97949.64
2018-03-21T07:04:37.350Z,97953.65
2018-03-21T07:07:13.037Z,97955.52
2018-03-21T07:09:43.976Z,97959.06
2018-03-21T07:12:14.912Z,97958.80
2018-03-21T07:15:04.738Z,97960.09
2018-03-21T07:17:35.825Z,97957.86
2018-03-21T07:20:07.530Z,97963.15
2018-03-21T07:22:39.135Z,97962.13
2018-03-21T07:25:17.360Z,97967.50
2018-03-21T07:27:48.145Z,97969.59
2018-03-21T07:30:19.361Z,97975.91
2018-03-21T07:32:49.636Z,97974.37
2018-03-21T07:35:21.885Z,97970.88
2018-03-21T07:37:54.365Z,97972.09
2018-03-21T07:40:31.441Z,97966.36
2018-03-21T07:43:00.973Z,97969.31
2018-03-21T07:45:32.405Z,97967.53
2018-03-21T07:48:08.392Z,97967.38
2018-03-21T07:50:40.840Z,97961.44
2018-03-21T07:53:12.579Z,97952.38
2018-03-21T07:55:43.449Z,97953.47
2018-03-21T07:58:16.726Z,97951.44
2018-03-21T08:00:49.171Z,97947.41
2018-03-21T08:03:19.213Z,97944.59
2018-03-21T08:05:51.850Z,97946.13
2018-03-21T08:08:22.233Z,97952.73
2018-03-21T08:10:57.447Z,97948.38
2018-03-21T08:13:27.676Z,97950.34
2018-03-21T08:16:06.323Z,97943.58
2018-03-21T08:18:39.266Z,97951.63
2018-03-21T08:21:12.344Z,97950.86
2018-03-21T08:23:48.791Z,97941.78
2018-03-21T08:26:22.622Z,97946.27
2018-03-21T08:28:54.265Z,97940.03
2018-03-21T08:31:45.069Z,97939.48
2018-03-21T08:34:22.883Z,97943.30
2018-03-21T08:36:53.124Z,97938.94
2018-03-21T08:39:24.723Z,97940.08
2018-03-21T08:41:55.875Z,97943.51
2018-03-21T08:44:28.110Z,97938.13
2018-03-21T08:47:02.267Z,97934.69
2018-03-21T08:49:33.257Z,97936.53
2018-03-21T08:52:04.117Z,97937.21
2018-03-21T08:54:35.477Z,97944.34
2018-03-21T08:57:15.825Z,97933.36
2018-03-21T08:59:49.610Z,97943.34
2018-03-21T09:02:20.051Z,97943.31
2018-03-21T09:04:50.447Z,97943.03
2018-03-21T09:07:23.252Z,97945.36
2018-03-21T09:09:54.307Z,97941.54
2018-03-21T09:12:23.842Z,97941.17
2018-03-21T09:14:58.145Z,97946.79
2018-03-21T09:17:28.036Z,97952.02
2018-03-21T09:20:03.561Z,97946.25
2018-03-21T09:22:33.987Z,97944.77
2018-03-21T09:25:04.427Z,97949.97
2018-03-21T09:27:36.206Z,97950.64
2018-03-21T09:30:08.491Z,97961.26
2018-03-21T09:32:41.695Z,97955.80
2018-03-21T09:35:12.748Z,97952.55
2018-03-21T09:37:43.670Z,97949.64
2018-03-21T09:40:15.621Z,97952.92
2018-03-21T09:42:56.389Z,97951.46
2018-03-21T09:45:29.135Z,97959.46
2018-03-21T09:47:59.159Z,97945.92
2018-03-21T09:50:32.403Z,97958.63
2018-03-21T09:53:03.047Z,97957.48
2018-03-21T09:55:37.005Z,97953.39
2018-03-21T09:58:08.952Z,97952.16
2018-03-21T10:00:38.973Z,97949.62
2018-03-21T10:03:09.959Z,97949.98
2018-03-21T10:05:40.504Z,97944.33
2018-03-21T10:08:12.121Z,97952.48
2018-03-21T10:10:47.185Z,97952.31
2018-03-21T10:13:19.175Z,97960.02
2018-03-21T10:15:48.954Z,97956.30
2018-03-21T10:18:19.882Z,97950.44
2018-03-21T10:20:52.654Z,97954.38
2018-03-21T10:23:22.445Z,97949.27
2018-03-21T10:25:56.378Z,97953.69
2018-03-21T10:28:28.266Z,97954.33
2018-03-21T10:30:59.648Z,97951.48
2018-03-21T10:33:29.870Z,97954.81
2018-03-21T10:36:01.618Z,97954.94
2018-03-21T10:38:31.361Z,97961.31
2018-03-21T10:41:04.005Z,97953.86
2018-03-21T10:43:35.679Z,97958.59
2018-03-21T10:46:07.125Z,97951.55
2018-03-21T10:48:37.106Z,97963.92
2018-03-21T10:51:07.195Z,97954.99
2018-03-21T10:53:46.362Z,97959.98
2018-03-21T10:56:19.284Z,97966.33
2018-03-21T10:58:50.425Z,97968.02
2018-03-21T11:01:28.112Z,97959.33
2018-03-21T11:03:58.919Z,97959.88
2018-03-21T11:06:29.742Z,97946.55
2018-03-21T11:09:01.804Z,97942.86
2018-03-21T11:11:38.772Z,97945.70
2018-03-21T11:14:08.846Z,97947.19
2018-03-21T11:16:41.846Z,97941.09
2018-03-21T11:19:13.622Z,97941.64
2018-03-21T11:21:47.394Z,97939.50
2018-03-21T11:24:21.902Z,97941.06
2018-03-21T11:26:53.150Z,97936.33
2018-03-21T11:29:24.026Z,97942.46
2018-03-21T11:31:59.129Z,97941.66
2018-03-21T11:34:32.060Z,97940.48
2018-03-21T11:37:05.890Z,97934.19
2018-03-21T11:39:37.043Z,97941.69
2018-03-21T11:42:07.353Z,97942.59
2018-03-21T11:44:37.923Z,97942.66
2018-03-21T11:47:11.002Z,97946.78
2018-03-21T11:49:41.830Z,97942.06
2018-03-21T11:52:13.561Z,97930.23
2018-03-21T11:54:49.415Z,97931.74
2018-03-21T11:57:20.728Z,97935.91
2018-03-21T11:59:51.479Z,97935.53
2018-03-21T12:02:23.606Z,97935.92
2018-03-21T12:05:06.037Z,97934.44
2018-03-21T12:07:41.096Z,97939.11
2018-03-21T12:10:12.635Z,97941.25
2018-03-21T12:12:45.873Z,97942.46
2018-03-21T12:15:17.884Z,97936.98
2018-03-21T12:17:48.823Z,97929.59
2018-03-21T12:20:19.094Z,97932.71
2018-03-21T12:22:49.648Z,97928.94
2018-03-21T12:25:22.842Z,97930.05
2018-03-21T12:27:58.781Z,97927.53
2018-03-21T12:30:31.076Z,97918.79
2018-03-21T12:33:06.066Z,97925.97
2018-03-21T12:35:41.135Z,97935.83
2018-03-21T12:38:11.313Z,97944.76
2018-03-21T12:40:41.725Z,97947.48
2018-03-21T12:43:11.803Z,97948.33
2018-03-21T12:45:42.965Z,97953.02
2018-03-21T12:48:14.410Z,97956.88
2018-03-21T12:50:47.373Z,97955.66
2018-03-21T12:53:19.756Z,97950.42
2018-03-21T12:55:51.502Z,97946.91
2018-03-21T12:58:27.730Z,97948.66
2018-03-21T13:01:06.279Z,97946.78
2018-03-21T13:03:36.141Z,97952.45
2018-03-21T13:06:10.539Z,97948.36
2018-03-21T13:08:41.197Z,97954.59
2018-03-21T13:14:16.453Z,97964.25
2018-03-21T13:16:48.687Z,97965.37
2018-03-21T13:19:22.271Z,97970.10
2018-03-21T13:21:54.091Z,97963.48
2018-03-21T13:24:28.007Z,97968.09
2018-03-21T13:27:00.517Z,97969.12
2018-03-21T13:29:30.430Z,97965.42
2018-03-21T13:32:00.091Z,97970.73
2018-03-21T13:34:31.064Z,97967.14
2018-03-21T13:37:03.101Z,97965.87
2018-03-21T13:39:34.923Z,97960.43
2018-03-21T13:42:09.861Z,97965.80
2018-03-21T13:44:43.174Z,97969.59
2018-03-21T13:47:18.947Z,97975.08
2018-03-21T13:49:48.297Z,97975.48
2018-03-21T13:52:18.360Z,97980.71
2018-03-21T13:54:47.692Z,97970.46
2018-03-21T13:57:17.964Z,97970.33
2018-03-21T13:59:47.267Z,97969.36
2018-03-21T14:02:16.612Z,97972.98
2018-03-21T14:04:46.019Z,97971.59
2018-03-21T14:07:15.587Z,97972.31
2018-03-21T14:09:45.303Z,97973.59
2018-03-21T14:12:14.663Z,97963.70
2018-03-21T14:14:44.754Z,97959.09
2018-03-21T14:17:14.165Z,97956.87
2018-03-21T14:19:43.539Z,97957.13
2018-03-21T14:22:13.054Z,97962.24
2018-03-21T14:24:42.337Z,97963.84
2018-03-21T14:27:11.976Z,97957.84
2018-03-21T14:29:41.308Z,97954.09
2018-03-21T14:32:11.721Z,97952.17
2018-03-21T14:34:41.151Z,97966.64
2018-03-21T14:37:11.692Z,97964.30
2018-03-21T14:39:41.178Z,97962.61
2018-03-21T14:42:11.263Z,97964.41
2018-03-21T14:44:40.572Z,97964.23
2018-03-21T14:47:09.907Z,97964.69
2018-03-21T14:49:39.234Z,97958.70
2018-03-21T14:52:09.155Z,97957.73
2018-03-21T14:54:38.481Z,97948.20
2018-03-21T14:57:08.103Z,97960.89
2018-03-21T14:59:37.606Z,97961.28
2018-03-21T15:02:07.081Z,97956.39
2018-03-21T15:04:36.402Z,97950.67
2018-03-21T15:07:05.705Z,97945.68
2018-03-21T15:09:35.170Z,97955.00
2018-03-21T15:12:04.456Z,97951.68
2018-03-21T15:14:33.798Z,97952.39
2018-03-21T15:17:06.354Z,97952.55
2018-03-21T15:19:37.824Z,97951.83
2018-03-21T15:22:08.636Z,97955.99
2018-03-21T15:24:43.499Z,97955.19
2018-03-21T15:27:14.796Z,97960.47
2018-03-21T15:29:44.386Z,97958.13
2018-03-21T15:32:14.201Z,97963.83
2018-03-21T15:34:43.519Z,97959.68
2018-03-21T15:37:12.836Z,97963.79
2018-03-21T15:39:42.294Z,97956.38
2018-03-21T15:42:12.350Z,97961.30
2018-03-21T15:44:43.021Z,97969.03
2018-03-21T15:47:12.309Z,97974.45
2018-03-21T15:49:41.596Z,97984.52
2018-03-21T15:52:11.030Z,97983.78
2018-03-21T15:54:40.357Z,97987.00
2018-03-21T15:57:09.625Z,97990.50
2018-03-21T15:59:39.095Z,97989.21
2018-03-21T16:02:08.395Z,97995.03
2018-03-21T16:04:38.469Z,98001.01
2018-03-21T16:07:07.820Z,98001.16
2018-03-21T16:09:37.148Z,98010.53
2018-03-21T16:12:06.424Z,98010.83
2018-03-21T16:14:35.734Z,98014.27
2018-03-21T16:17:05.743Z,98015.84
2018-03-21T16:19:35.215Z,98020.92
2018-03-21T16:22:04.815Z,98026.18
2018-03-21T16:24:34.365Z,98028.06
2018-03-21T16:27:04.372Z,98036.34
2018-03-21T16:29:34.561Z,98037.34
2018-03-21T16:32:04.423Z,98038.24
2018-03-21T16:34:34.438Z,98043.16
2018-03-21T16:37:04.531Z,98050.58
2018-03-21T16:39:34.616Z,98054.37
2018-03-21T16:42:05.760Z,98060.61
2018-03-21T16:44:48.591Z,98062.48
2018-03-21T16:47:19.621Z,98074.11
2018-03-21T16:49:49.378Z,98073.25
2018-03-21T16:52:19.429Z,98072.50
2018-03-21T16:54:48.727Z,98070.67
2018-03-21T16:57:18.364Z,98075.60
2018-03-21T16:59:47.621Z,98078.66
2018-03-21T17:02:16.961Z,98082.08
2018-03-21T17:04:46.339Z,98091.50
2018-03-21T17:07:17.707Z,98092.05
2018-03-21T17:09:47.032Z,98095.93
2018-03-21T17:12:16.467Z,98101.53
2018-03-21T17:14:57.350Z,98103.38
2018-03-21T17:17:27.408Z,98105.64
2018-03-21T17:19:58.199Z,98109.25
2018-03-21T17:22:27.577Z,98117.80
2018-03-21T17:24:57.622Z,98114.78
2018-03-21T17:27:26.957Z,98120.56
2018-03-21T17:29:56.602Z,98120.91
2018-03-21T17:32:27.931Z,98125.41
2018-03-21T17:35:00.333Z,98128.44
2018-03-21T17:37:31.288Z,98133.56
2018-03-21T17:40:05.170Z,98143.29
2018-03-21T17:42:38.811Z,98142.75
2018-03-21T17:45:10.919Z,98145.03
2018-03-21T17:47:42.238Z,98155.00
2018-03-21T17:50:12.367Z,98159.36
2018-03-21T17:52:48.027Z,98167.48
2018-03-21T17:55:29.373Z,98175.98
2018-03-21T17:58:00.637Z,98184.38
2018-03-21T18:00:31.503Z,98189.89
2018-03-21T18:03:02.251Z,98194.52
2018-03-21T18:05:33.357Z,98194.91
2018-03-21T18:08:03.487Z,98196.63
2018-03-21T18:10:34.925Z,98207.30
2018-03-21T18:15:48.568Z,98214.70
2018-03-21T18:18:19.751Z,98225.58
2018-03-21T18:20:51.768Z,98226.39
2018-03-21T18:23:21.956Z,98223.23
2018-03-21T18:25:52.288Z,98234.09
2018-03-21T18:28:23.292Z,98233.20
2018-03-21T18:30:53.610Z,98237.72
2018-03-21T18:33:24.022Z,98236.94
2018-03-21T18:35:55.037Z,98234.23
2018-03-21T18:38:26.011Z,98243.71
2018-03-21T18:40:57.468Z,98245.88
2018-03-21T18:43:30.137Z,98243.27
2018-03-21T18:46:04.660Z,98251.04
2018-03-21T18:48:36.064Z,98255.70
2018-03-21T18:51:06.773Z,98261.21
2018-03-21T18:53:40.718Z,98258.30
2018-03-21T18:56:11.863Z,98264.98
2018-03-21T18:58:43.729Z,98261.34
2018-03-21T19:01:13.380Z,98262.86
2018-03-21T19:03:44.899Z,98256.16
2018-03-21T19:06:15.459Z,98258.82
2018-03-21T19:08:45.400Z,98256.72
2018-03-21T19:11:17.679Z,98255.09
2018-03-21T19:13:52.856Z,98258.72
2018-03-21T19:16:23.166Z,98263.74
2018-03-21T19:18:53.937Z,98264.25
2018-03-21T19:21:27.724Z,98263.89
2018-03-21T19:23:59.566Z,98259.46
2018-03-21T19:26:30.404Z,98267.75
2018-03-21T19:29:03.647Z,98261.67
2018-03-21T19:31:35.606Z,98270.64
2018-03-21T19:34:05.695Z,98272.70
2018-03-21T19:36:35.751Z,98272.08
2018-03-21T19:39:08.216Z,98278.30
2018-03-21T19:41:39.154Z,98282.44
2018-03-21T19:44:10.613Z,98281.83
2018-03-21T19:46:42.705Z,98282.69
2018-03-21T19:49:15.499Z,98285.66
2018-03-21T19:52:05.411Z,98281.75
2018-03-21T19:54:37.819Z,98284.17
2018-03-21T19:57:08.838Z,98285.80
2018-03-21T19:59:41.450Z,98282.22
2018-03-21T20:02:13.454Z,98282.58
2018-03-21T20:04:43.938Z,98281.34
2018-03-21T20:07:14.930Z,98285.80
2018-03-21T20:09:45.474Z,98283.98
2018-03-21T20:12:16.631Z,98286.75
2018-03-21T20:14:47.241Z,98285.58
2018-03-21T20:17:18.486Z,98294.98
2018-03-21T20:19:56.430Z,98298.89
2018-03-21T20:22:31.115Z,98294.61
2018-03-21T20:25:04.567Z,98292.58
2018-03-21T20:27:36.920Z,98293.62
2018-03-21T20:30:10.144Z,98286.13
2018-03-21T20:32:50.313Z,98284.84
2018-03-21T20:35:21.226Z,98285.23
2018-03-21T20:37:53.724Z,98287.97
2018-03-21T20:40:33.954Z,98292.81
2018-03-21T20:43:07.619Z,98289.20
2018-03-21T20:45:39.176Z,98291.48
2018-03-21T20:48:12.404Z,98292.53
2018-03-21T20:50:42.912Z,98295.96
2018-03-21T20:53:12.451Z,98291.21
2018-03-21T20:55:46.501Z,98291.80
2018-03-21T20:58:17.287Z,98294.22
2018-03-21T21:00:51.341Z,98294.16
2018-03-21T21:03:24.754Z,98295.59
2018-03-21T21:05:55.399Z,98295.59
2018-03-21T21:08:28.708Z,98294.85
2018-03-21T21:10:59.811Z,98294.47
2018-03-21T21:13:31.751Z,98298.17
2018-03-21T21:16:02.454Z,98293.78
2018-03-21T21:18:35.354Z,98290.56
2018-03-21T21:21:06.538Z,98288.19
2018-03-21T21:23:39.416Z,98293.54
2018-03-21T21:26:13.716Z,98289.52
2018-03-21T21:28:45.290Z,98292.82
2018-03-21T21:31:17.295Z,98297.38
2018-03-21T21:33:49.029Z,98289.56
2018-03-21T21:36:24.306Z,98290.29
2018-03-21T21:38:55.150Z,98293.36
2018-03-21T21:41:25.905Z,98295.83
2018-03-21T21:43:58.890Z,98291.05
2018-03-21T21:46:32.452Z,98295.84
2018-03-21T21:49:06.301Z,98289.70
2018-03-21T21:51:37.954Z,98281.13
2018-03-21T21:54:09.212Z,98288.54
2018-03-21T21:56:42.262Z,98289.02
2018-03-21T21:59:16.596Z,98286.36
2018-03-21T22:01:47.859Z,98296.31
2018-03-21T22:04:22.894Z,98292.14
2018-03-21T22:06:57.094Z,98286.84
2018-03-21T22:09:30.324Z,98280.25
2018-03-21T22:12:01.038Z,98286.58
2018-03-21T22:14:32.599Z,98285.72
2018-03-21T22:17:02.875Z,98285.15
2018-03-21T22:19:33.849Z,98278.52
2018-03-21T22:22:04.323Z,98281.14
2018-03-21T22:24:35.175Z,98277.41
2018-03-21T22:27:09.741Z,98281.45
2018-03-21T22:29:39.810Z,98276.66
2018-03-21T22:32:11.764Z,98275.86
2018-03-21T22:34:44.314Z,98277.74
2018-03-21T22:37:15.794Z,98274.15
2018-03-21T22:39:47.119Z,98262.32
2018-03-21T22:42:17.960Z,98265.55
2018-03-21T22:44:47.920Z,98270.84
2018-03-21T22:47:18.167Z,98270.14
2018-03-21T22:49:50.084Z,98265.16
2018-03-21T22:52:23.415Z,98265.92
2018-03-21T22:54:56.565Z,98265.17
2018-03-21T22:57:28.640Z,98267.09
2018-03-21T23:00:00.364Z,98262.03
2018-03-21T23:02:33.236Z,98266.75
2018-03-21T23:05:06.045Z,98267.12
2018-03-21T23:07:36.436Z,98271.34
2018-03-21T23:10:09.359Z,98275.74
2018-03-21T23:12:40.287Z,98276.65
2018-03-21T23:15:12.666Z,98267.98
2018-03-21T23:17:46.003Z,98276.97
2018-03-21T23:20:19.195Z,98278.23
2018-03-21T23:22:51.271Z,98274.31
2018-03-21T23:25:21.608Z,98271.50
2018-03-21T23:27:57.484Z,98272.20
2018-03-21T23:30:28.606Z,98265.67
2018-03-21T23:32:59.746Z,98263.73
2018-03-21T23:35:30.201Z,98266.88
2018-03-21T23:38:01.160Z,98265.88
2018-03-21T23:40:35.545Z,98267.44
2018-03-21T23:43:07.011Z,98275.67
2018-03-21T23:45:39.745Z,98274.53
2018-03-21T23:48:10.526Z,98269.91
2018-03-21T23:50:41.630Z,98280.66
2018-03-21T23:53:14.498Z,98279.98
2018-03-21T23:55:44.616Z,98282.36
2018-03-21T23:58:15.110Z,98280.53
